sensor_id;sensor_type;location;lat;lon;timestamp;pressure;altitude;pressure_sealevel;temperature;humidity
57779;BME280;43608;49.486;9.640;2023-02-18T00:00:18;99451.50;;;9.97;94.51
57779;BME280;43608;49.486;9.640;2023-02-18T00:00:49;99432.81;;;9.84;94.57
57779;BME280;43608;49.486;9.640;2023-02-18T00:01:20;99453.28;;;9.98;94.82
57779;BME280;43608;49.486;9.640;2023-02-18T00:01:51;99450.63;;;9.96;94.92
57779;BME280;43608;49.486;9.640;2023-02-18T00:02:21;99430.22;;;9.87;94.90
57779;BME280;43608;49.486;9.640;2023-02-18T00:02:52;99444.41;;;9.96;94.97
57779;BME280;43608;49.486;9.640;2023-02-18T00:03:24;99443.53;;;9.95;95.02
57779;BME280;43608;49.486;9.640;2023-02-18T00:03:56;99439.09;;;9.91;94.99
57779;BME280;43608;49.486;9.640;2023-02-18T00:04:27;99431.94;;;9.85;95.08
57779;BME280;43608;49.486;9.640;2023-02-18T00:04:57;99433.75;;;9.89;95.18
57779;BME280;43608;49.486;9.640;2023-02-18T00:05:28;99452.34;;;9.96;95.34
57779;BME280;43608;49.486;9.640;2023-02-18T00:05:58;99452.38;;;9.97;94.94
57779;BME280;43608;49.486;9.640;2023-02-18T00:06:31;99441.75;;;9.96;94.96
57779;BME280;43608;49.486;9.640;2023-02-18T00:07:02;99441.75;;;9.96;95.13
57779;BME280;43608;49.486;9.640;2023-02-18T00:07:34;99441.75;;;9.96;95.46
57779;BME280;43608;49.486;9.640;2023-02-18T00:08:05;99439.09;;;9.91;95.19
57779;BME280;43608;49.486;9.640;2023-02-18T00:08:35;99434.66;;;9.88;95.09
57779;BME280;43608;49.486;9.640;2023-02-18T00:09:06;99454.13;;;9.94;95.33
57779;BME280;43608;49.486;9.640;2023-02-18T00:09:38;99434.59;;;9.84;95.48
57779;BME280;43608;49.486;9.640;2023-02-18T00:10:13;99448.81;;;9.94;95.36
57779;BME280;43608;49.486;9.640;2023-02-18T00:10:43;99417.75;;;9.75;95.28
57779;BME280;43608;49.486;9.640;2023-02-18T00:11:15;99441.72;;;9.91;95.59
57779;BME280;43608;49.486;9.640;2023-02-18T00:11:45;99421.28;;;9.78;95.80
57779;BME280;43608;49.486;9.640;2023-02-18T00:12:16;99448.78;;;9.90;95.59
57779;BME280;43608;49.486;9.640;2023-02-18T00:12:46;99434.50;;;9.79;95.80
57779;BME280;43608;49.486;9.640;2023-02-18T00:13:17;99442.59;;;9.88;95.79
57779;BME280;43608;49.486;9.640;2023-02-18T00:13:51;99423.03;;;9.75;95.74
57779;BME280;43608;49.486;9.640;2023-02-18T00:14:22;99441.66;;;9.85;96.01
57779;BME280;43608;49.486;9.640;2023-02-18T00:14:53;99439.00;;;9.85;95.94
57779;BME280;43608;49.486;9.640;2023-02-18T00:15:23;99423.97;;;9.81;96.15
57779;BME280;43608;49.486;9.640;2023-02-18T00:15:53;99423.06;;;9.80;96.27
57779;BME280;43608;49.486;9.640;2023-02-18T00:16:25;99431.88;;;9.79;96.12
57779;BME280;43608;49.486;9.640;2023-02-18T00:16:56;99436.34;;;9.83;96.16
57779;BME280;43608;49.486;9.640;2023-02-18T00:17:28;99418.59;;;9.73;96.45
57779;BME280;43608;49.486;9.640;2023-02-18T00:17:58;99448.75;;;9.87;96.32
57779;BME280;43608;49.486;9.640;2023-02-18T00:18:29;99440.78;;;9.86;96.27
57779;BME280;43608;49.486;9.640;2023-02-18T00:19:01;99446.94;;;9.83;96.27
57779;BME280;43608;49.486;9.640;2023-02-18T00:19:32;99448.75;;;9.87;96.46
57779;BME280;43608;49.486;9.640;2023-02-18T00:20:04;99444.31;;;9.86;96.30
57779;BME280;43608;49.486;9.640;2023-02-18T00:20:38;99426.53;;;9.74;96.58
57779;BME280;43608;49.486;9.640;2023-02-18T00:21:08;99448.69;;;9.83;96.55
57779;BME280;43608;49.486;9.640;2023-02-18T00:21:39;99439.81;;;9.78;96.49
57779;BME280;43608;49.486;9.640;2023-02-18T00:22:09;99450.47;;;9.85;96.79
57779;BME280;43608;49.486;9.640;2023-02-18T00:22:40;99409.66;;;9.65;96.49
57779;BME280;43608;49.486;9.640;2023-02-18T00:23:10;99418.50;;;9.67;96.75
57779;BME280;43608;49.486;9.640;2023-02-18T00:23:41;99454.91;;;9.85;96.93
57779;BME280;43608;49.486;9.640;2023-02-18T00:24:14;99456.63;;;9.84;96.72
57779;BME280;43608;49.486;9.640;2023-02-18T00:24:44;99444.31;;;9.85;96.84
57779;BME280;43608;49.486;9.640;2023-02-18T00:25:14;99439.81;;;9.78;96.96
57779;BME280;43608;49.486;9.640;2023-02-18T00:25:45;99445.16;;;9.84;96.98
57779;BME280;43608;49.486;9.640;2023-02-18T00:26:17;99437.13;;;9.74;96.94
57779;BME280;43608;49.486;9.640;2023-02-18T00:26:50;99446.88;;;9.79;97.00
57779;BME280;43608;49.486;9.640;2023-02-18T00:27:21;99451.34;;;9.84;97.16
57779;BME280;43608;49.486;9.640;2023-02-18T00:27:51;99449.59;;;9.85;97.13
57779;BME280;43608;49.486;9.640;2023-02-18T00:28:21;99434.50;;;9.76;96.83
57779;BME280;43608;49.486;9.640;2023-02-18T00:28:52;99436.28;;;9.80;97.32
57779;BME280;43608;49.486;9.640;2023-02-18T00:29:23;99427.38;;;9.70;97.33
57779;BME280;43608;49.486;9.640;2023-02-18T00:29:53;99441.56;;;9.77;97.34
57779;BME280;43608;49.486;9.640;2023-02-18T00:30:24;99430.06;;;9.73;97.46
57779;BME280;43608;49.486;9.640;2023-02-18T00:30:54;99442.50;;;9.82;97.57
57779;BME280;43608;49.486;9.640;2023-02-18T00:31:27;99451.31;;;9.81;97.47
57779;BME280;43608;49.486;9.640;2023-02-18T00:31:57;99435.34;;;9.73;97.55
57779;BME280;43608;49.486;9.640;2023-02-18T00:32:28;99447.78;;;9.81;97.52
57779;BME280;43608;49.486;9.640;2023-02-18T00:32:58;99435.38;;;9.76;97.46
57779;BME280;43608;49.486;9.640;2023-02-18T00:33:29;99418.50;;;9.64;97.80
57779;BME280;43608;49.486;9.640;2023-02-18T00:34:00;99447.78;;;9.81;97.68
57779;BME280;43608;49.486;9.640;2023-02-18T00:34:30;99427.34;;;9.67;97.83
57779;BME280;43608;49.486;9.640;2023-02-18T00:35:01;99445.09;;;9.76;97.84
57779;BME280;43608;49.486;9.640;2023-02-18T00:35:31;99441.56;;;9.75;97.83
57779;BME280;43608;49.486;9.640;2023-02-18T00:36:04;99448.66;;;9.80;97.98
57779;BME280;43608;49.486;9.640;2023-02-18T00:36:35;99450.41;;;9.79;97.96
57779;BME280;43608;49.486;9.640;2023-02-18T00:37:06;99431.81;;;9.73;98.13
57779;BME280;43608;49.486;9.640;2023-02-18T00:37:36;99435.34;;;9.75;97.97
57779;BME280;43608;49.486;9.640;2023-02-18T00:38:07;99443.34;;;9.78;98.05
57779;BME280;43608;49.486;9.640;2023-02-18T00:38:38;99437.13;;;9.74;98.10
57779;BME280;43608;49.486;9.640;2023-02-18T00:39:09;99445.09;;;9.78;98.08
57779;BME280;43608;49.486;9.640;2023-02-18T00:39:40;99425.59;;;9.66;98.17
57779;BME280;43608;49.486;9.640;2023-02-18T00:40:11;99426.38;;;9.62;98.22
57779;BME280;43608;49.486;9.640;2023-02-18T00:40:41;99438.94;;;9.77;98.28
57779;BME280;43608;49.486;9.640;2023-02-18T00:41:12;99438.00;;;9.73;98.13
57779;BME280;43608;49.486;9.640;2023-02-18T00:41:43;99445.09;;;9.78;98.15
57779;BME280;43608;49.486;9.640;2023-02-18T00:42:13;99430.03;;;9.70;98.33
57779;BME280;43608;49.486;9.640;2023-02-18T00:42:43;99430.03;;;9.70;98.47
57779;BME280;43608;49.486;9.640;2023-02-18T00:43:14;99444.22;;;9.77;98.20
57779;BME280;43608;49.486;9.640;2023-02-18T00:43:44;99441.56;;;9.77;98.48
57779;BME280;43608;49.486;9.640;2023-02-18T00:44:15;99436.22;;;9.72;98.37
57779;BME280;43608;49.486;9.640;2023-02-18T00:44:45;99425.63;;;9.71;98.34
57779;BME280;43608;49.486;9.640;2023-02-18T00:45:16;99448.59;;;9.75;98.25
57779;BME280;43608;49.486;9.640;2023-02-18T00:45:46;99445.09;;;9.78;98.39
57779;BME280;43608;49.486;9.640;2023-02-18T00:46:17;99449.50;;;9.77;98.46
57779;BME280;43608;49.486;9.640;2023-02-18T00:46:47;99422.03;;;9.66;98.47
57779;BME280;43608;49.486;9.640;2023-02-18T00:47:18;99424.66;;;9.64;98.36
57779;BME280;43608;49.486;9.640;2023-02-18T00:47:49;99437.13;;;9.74;98.66
57779;BME280;43608;49.486;9.640;2023-02-18T00:48:19;99438.88;;;9.74;98.72
57779;BME280;43608;49.486;9.640;2023-02-18T00:48:50;99407.84;;;9.57;98.72
57779;BME280;43608;49.486;9.640;2023-02-18T00:49:20;99437.97;;;9.72;98.78
57779;BME280;43608;49.486;9.640;2023-02-18T00:49:51;99409.63;;;9.62;98.81
57779;BME280;43608;49.486;9.640;2023-02-18T00:50:21;99442.44;;;9.76;98.72
57779;BME280;43608;49.486;9.640;2023-02-18T00:50:52;99423.84;;;9.71;98.31
57779;BME280;43608;49.486;9.640;2023-02-18T00:51:23;99422.94;;;9.68;98.71
57779;BME280;43608;49.486;9.640;2023-02-18T00:51:54;99406.97;;;9.60;98.46
57779;BME280;43608;49.486;9.640;2023-02-18T00:52:24;99433.56;;;9.72;98.66
57779;BME280;43608;49.486;9.640;2023-02-18T00:52:55;99406.13;;;9.63;98.65
57779;BME280;43608;49.486;9.640;2023-02-18T00:53:26;99433.63;;;9.75;98.69
57779;BME280;43608;49.486;9.640;2023-02-18T00:53:57;99438.00;;;9.75;98.60
57779;BME280;43608;49.486;9.640;2023-02-18T00:54:27;99405.19;;;9.59;98.77
57779;BME280;43608;49.486;9.640;2023-02-18T00:54:58;99430.94;;;9.74;98.83
57779;BME280;43608;49.486;9.640;2023-02-18T00:55:28;99425.63;;;9.72;98.97
57779;BME280;43608;49.486;9.640;2023-02-18T00:55:59;99434.44;;;9.71;98.97
57779;BME280;43608;49.486;9.640;2023-02-18T00:56:29;99431.81;;;9.73;98.92
57779;BME280;43608;49.486;9.640;2023-02-18T00:57:00;99419.38;;;9.66;98.84
57779;BME280;43608;49.486;9.640;2023-02-18T00:57:30;99421.19;;;9.70;98.67
57779;BME280;43608;49.486;9.640;2023-02-18T00:58:01;99430.94;;;9.74;98.80
57779;BME280;43608;49.486;9.640;2023-02-18T00:58:33;99438.94;;;9.77;99.13
57779;BME280;43608;49.486;9.640;2023-02-18T00:59:04;99436.25;;;9.75;98.89
57779;BME280;43608;49.486;9.640;2023-02-18T00:59:34;99440.66;;;9.76;99.01
57779;BME280;43608;49.486;9.640;2023-02-18T01:00:05;99437.13;;;9.76;98.77
57779;BME280;43608;49.486;9.640;2023-02-18T01:00:36;99439.78;;;9.76;98.89
57779;BME280;43608;49.486;9.640;2023-02-18T01:01:08;99434.50;;;9.76;99.10
57779;BME280;43608;49.486;9.640;2023-02-18T01:01:39;99435.38;;;9.76;98.84
57779;BME280;43608;49.486;9.640;2023-02-18T01:02:09;99430.06;;;9.73;98.76
57779;BME280;43608;49.486;9.640;2023-02-18T01:02:39;99409.63;;;9.60;98.86
57779;BME280;43608;49.486;9.640;2023-02-18T01:03:10;99410.56;;;9.64;99.11
57779;BME280;43608;49.486;9.640;2023-02-18T01:03:41;99427.31;;;9.64;98.98
57779;BME280;43608;49.486;9.640;2023-02-18T01:04:12;99429.97;;;9.67;99.00
57779;BME280;43608;49.486;9.640;2023-02-18T01:04:42;99433.63;;;9.77;98.92
57779;BME280;43608;49.486;9.640;2023-02-18T01:05:13;99405.19;;;9.57;99.11
57779;BME280;43608;49.486;9.640;2023-02-18T01:05:43;99412.28;;;9.62;99.28
57779;BME280;43608;49.486;9.640;2023-02-18T01:06:14;99432.72;;;9.75;98.85
57779;BME280;43608;49.486;9.640;2023-02-18T01:06:44;99425.59;;;9.68;99.11
57779;BME280;43608;49.486;9.640;2023-02-18T01:07:15;99415.84;;;9.64;99.04
57779;BME280;43608;49.486;9.640;2023-02-18T01:07:45;99424.66;;;9.66;99.16
57779;BME280;43608;49.486;9.640;2023-02-18T01:08:17;99435.38;;;9.76;99.17
57779;BME280;43608;49.486;9.640;2023-02-18T01:08:48;99415.78;;;9.61;99.14
57779;BME280;43608;49.486;9.640;2023-02-18T01:09:18;99408.75;;;9.61;99.26
57779;BME280;43608;49.486;9.640;2023-02-18T01:09:49;99415.84;;;9.64;99.17
57779;BME280;43608;49.486;9.640;2023-02-18T01:10:19;99440.66;;;9.75;99.11
57779;BME280;43608;49.486;9.640;2023-02-18T01:10:53;99435.34;;;9.75;99.19
57779;BME280;43608;49.486;9.640;2023-02-18T01:11:24;99420.28;;;9.68;99.18
57779;BME280;43608;49.486;9.640;2023-02-18T01:11:55;99430.94;;;9.74;99.29
57779;BME280;43608;49.486;9.640;2023-02-18T01:12:25;99430.03;;;9.72;99.63
57779;BME280;43608;49.486;9.640;2023-02-18T01:12:55;99437.06;;;9.70;99.41
57779;BME280;43608;49.486;9.640;2023-02-18T01:13:27;99437.13;;;9.74;99.62
57779;BME280;43608;49.486;9.640;2023-02-18T01:13:57;99439.72;;;9.71;99.39
57779;BME280;43608;49.486;9.640;2023-02-18T01:14:28;99443.28;;;9.72;99.55
57779;BME280;43608;49.486;9.640;2023-02-18T01:14:58;99426.47;;;9.67;99.57
57779;BME280;43608;49.486;9.640;2023-02-18T01:15:29;99441.53;;;9.74;99.60
57779;BME280;43608;49.486;9.640;2023-02-18T01:16:00;99438.84;;;9.72;99.70
57779;BME280;43608;49.486;9.640;2023-02-18T01:16:30;99437.97;;;9.70;99.60
57779;BME280;43608;49.486;9.640;2023-02-18T01:17:00;99438.84;;;9.71;99.68
57779;BME280;43608;49.486;9.640;2023-02-18T01:17:31;99432.63;;;9.69;99.57
57779;BME280;43608;49.486;9.640;2023-02-18T01:18:01;99434.41;;;9.68;99.69
57779;BME280;43608;49.486;9.640;2023-02-18T01:18:32;99446.81;;;9.74;99.70
57779;BME280;43608;49.486;9.640;2023-02-18T01:19:02;99441.56;;;9.75;99.85
57779;BME280;43608;49.486;9.640;2023-02-18T01:19:33;99383.84;;;9.43;99.63
57779;BME280;43608;49.486;9.640;2023-02-18T01:20:04;99423.81;;;9.70;99.62
57779;BME280;43608;49.486;9.640;2023-02-18T01:20:35;99424.66;;;9.63;99.67
57779;BME280;43608;49.486;9.640;2023-02-18T01:21:07;99422.88;;;9.63;99.91
57779;BME280;43608;49.486;9.640;2023-02-18T01:21:37;99423.72;;;9.59;99.90
57779;BME280;43608;49.486;9.640;2023-02-18T01:22:08;99430.00;;;9.69;100.00
57779;BME280;43608;49.486;9.640;2023-02-18T01:22:38;99443.31;;;9.75;99.96
57779;BME280;43608;49.486;9.640;2023-02-18T01:23:09;99441.53;;;9.74;99.96
57779;BME280;43608;49.486;9.640;2023-02-18T01:23:40;99429.09;;;9.67;99.99
57779;BME280;43608;49.486;9.640;2023-02-18T01:24:11;99431.78;;;9.71;99.89
57779;BME280;43608;49.486;9.640;2023-02-18T01:24:41;99437.06;;;9.70;99.93
57779;BME280;43608;49.486;9.640;2023-02-18T01:25:12;99440.66;;;9.73;99.96
57779;BME280;43608;49.486;9.640;2023-02-18T01:25:43;99431.78;;;9.71;99.98
57779;BME280;43608;49.486;9.640;2023-02-18T01:26:14;99408.72;;;9.59;100.00
57779;BME280;43608;49.486;9.640;2023-02-18T01:26:44;99414.94;;;9.65;99.71
57779;BME280;43608;49.486;9.640;2023-02-18T01:27:14;99422.09;;;9.72;99.89
57779;BME280;43608;49.486;9.640;2023-02-18T01:27:45;99426.53;;;9.73;100.00
57779;BME280;43608;49.486;9.640;2023-02-18T01:28:16;99425.63;;;9.71;100.00
57779;BME280;43608;49.486;9.640;2023-02-18T01:28:47;99423.91;;;9.74;100.00
57779;BME280;43608;49.486;9.640;2023-02-18T01:29:17;99399.88;;;9.57;100.00
57779;BME280;43608;49.486;9.640;2023-02-18T01:29:48;99405.25;;;9.64;99.81
57779;BME280;43608;49.486;9.640;2023-02-18T01:30:18;99419.41;;;9.69;100.00
57779;BME280;43608;49.486;9.640;2023-02-18T01:30:50;99429.19;;;9.74;99.87
57779;BME280;43608;49.486;9.640;2023-02-18T01:31:21;99407.06;;;9.66;100.00
57779;BME280;43608;49.486;9.640;2023-02-18T01:31:51;99430.94;;;9.74;100.00
57779;BME280;43608;49.486;9.640;2023-02-18T01:32:22;99407.84;;;9.61;100.00
57779;BME280;43608;49.486;9.640;2023-02-18T01:32:52;99429.19;;;9.74;100.00
57779;BME280;43608;49.486;9.640;2023-02-18T01:33:23;99410.59;;;9.68;100.00
57779;BME280;43608;49.486;9.640;2023-02-18T01:33:53;99389.38;;;9.64;100.00
57779;BME280;43608;49.486;9.640;2023-02-18T01:34:23;99400.84;;;9.64;100.00
57779;BME280;43608;49.486;9.640;2023-02-18T01:34:54;99409.66;;;9.65;100.00
57779;BME280;43608;49.486;9.640;2023-02-18T01:35:24;99410.59;;;9.68;100.00
57779;BME280;43608;49.486;9.640;2023-02-18T01:35:55;99419.47;;;9.75;100.00
57779;BME280;43608;49.486;9.640;2023-02-18T01:36:25;99402.66;;;9.70;100.00
57779;BME280;43608;49.486;9.640;2023-02-18T01:36:56;99409.72;;;9.68;100.00
57779;BME280;43608;49.486;9.640;2023-02-18T01:37:26;99413.25;;;9.70;99.99
57779;BME280;43608;49.486;9.640;2023-02-18T01:37:57;99414.09;;;9.69;99.92
57779;BME280;43608;49.486;9.640;2023-02-18T01:38:27;99404.41;;;9.66;99.96
57779;BME280;43608;49.486;9.640;2023-02-18T01:38:58;99388.44;;;9.58;100.00
57779;BME280;43608;49.486;9.640;2023-02-18T01:39:28;99391.09;;;9.58;100.00
57779;BME280;43608;49.486;9.640;2023-02-18T01:39:58;99416.75;;;9.67;100.00
57779;BME280;43608;49.486;9.640;2023-02-18T01:40:29;99419.44;;;9.70;100.00
57779;BME280;43608;49.486;9.640;2023-02-18T01:40:59;99376.94;;;9.55;100.00
57779;BME280;43608;49.486;9.640;2023-02-18T01:41:30;99403.41;;;9.59;100.00
57779;BME280;43608;49.486;9.640;2023-02-18T01:42:00;99397.25;;;9.61;100.00
57779;BME280;43608;49.486;9.640;2023-02-18T01:42:31;99425.63;;;9.72;100.00
57779;BME280;43608;49.486;9.640;2023-02-18T01:43:02;99422.13;;;9.73;100.00
57779;BME280;43608;49.486;9.640;2023-02-18T01:43:32;99423.88;;;9.73;100.00
57779;BME280;43608;49.486;9.640;2023-02-18T01:44:40;99428.25;;;9.68;100.00
57779;BME280;43608;49.486;9.640;2023-02-18T01:46:36;99406.97;;;9.60;100.00
57779;BME280;43608;49.486;9.640;2023-02-18T01:47:06;99418.53;;;9.71;100.00
57779;BME280;43608;49.486;9.640;2023-02-18T01:47:36;99424.69;;;9.69;100.00
57779;BME280;43608;49.486;9.640;2023-02-18T01:48:44;99420.34;;;9.74;100.00
57779;BME280;43608;49.486;9.640;2023-02-18T01:49:18;99426.47;;;9.68;100.00
57779;BME280;43608;49.486;9.640;2023-02-18T01:49:51;99424.69;;;9.69;100.00
57779;BME280;43608;49.486;9.640;2023-02-18T01:50:22;99389.22;;;9.51;100.00
57779;BME280;43608;49.486;9.640;2023-02-18T01:51:00;99414.06;;;9.64;100.00
57779;BME280;43608;49.486;9.640;2023-02-18T01:51:35;99411.44;;;9.67;100.00
57779;BME280;43608;49.486;9.640;2023-02-18T01:52:36;99423.88;;;9.73;100.00
57779;BME280;43608;49.486;9.640;2023-02-18T01:53:07;99422.97;;;9.72;100.00
57779;BME280;43608;49.486;9.640;2023-02-18T01:53:59;99415.94;;;9.73;100.00
57779;BME280;43608;49.486;9.640;2023-02-18T01:54:39;99420.31;;;9.71;100.00
57779;BME280;43608;49.486;9.640;2023-02-18T01:55:10;99394.59;;;9.57;100.00
57779;BME280;43608;49.486;9.640;2023-02-18T01:55:41;99404.34;;;9.63;100.00
57779;BME280;43608;49.486;9.640;2023-02-18T01:56:17;99385.75;;;9.57;100.00
57779;BME280;43608;49.486;9.640;2023-02-18T01:57:36;99407.00;;;9.63;100.00
57779;BME280;43608;49.486;9.640;2023-02-18T01:58:07;99417.69;;;9.74;100.00
57779;BME280;43608;49.486;9.640;2023-02-18T01:58:39;99413.25;;;9.70;100.00
57779;BME280;43608;49.486;9.640;2023-02-18T01:59:16;99399.13;;;9.66;100.00
57779;BME280;43608;49.486;9.640;2023-02-18T01:59:51;99407.09;;;9.74;100.00
57779;BME280;43608;49.486;9.640;2023-02-18T02:00:21;99415.03;;;9.72;100.00
57779;BME280;43608;49.486;9.640;2023-02-18T02:00:52;99402.66;;;9.68;100.00
57779;BME280;43608;49.486;9.640;2023-02-18T02:01:22;99415.94;;;9.73;100.00
57779;BME280;43608;49.486;9.640;2023-02-18T02:01:55;99407.97;;;9.71;100.00
57779;BME280;43608;49.486;9.640;2023-02-18T02:02:29;99397.41;;;9.73;100.00
57779;BME280;43608;49.486;9.640;2023-02-18T02:03:01;99381.38;;;9.61;100.00
57779;BME280;43608;49.486;9.640;2023-02-18T02:03:32;99408.00;;;9.73;100.00
57779;BME280;43608;49.486;9.640;2023-02-18T02:04:02;99404.44;;;9.71;100.00
57779;BME280;43608;49.486;9.640;2023-02-18T02:04:33;99407.09;;;9.72;100.00
57779;BME280;43608;49.486;9.640;2023-02-18T02:05:03;99398.19;;;9.66;100.00
57779;BME280;43608;49.486;9.640;2023-02-18T02:05:34;99408.00;;;9.73;100.00
57779;BME280;43608;49.486;9.640;2023-02-18T02:06:30;99392.94;;;9.69;100.00
57779;BME280;43608;49.486;9.640;2023-02-18T02:07:01;99404.44;;;9.72;100.00
57779;BME280;43608;49.486;9.640;2023-02-18T02:07:31;99396.50;;;9.71;100.00
57779;BME280;43608;49.486;9.640;2023-02-18T02:08:03;99388.53;;;9.66;100.00
57779;BME280;43608;49.486;9.640;2023-02-18T02:08:34;99403.56;;;9.72;100.00
57779;BME280;43608;49.486;9.640;2023-02-18T02:09:06;99391.13;;;9.65;100.00
57779;BME280;43608;49.486;9.640;2023-02-18T02:09:39;99399.16;;;9.72;100.00
57779;BME280;43608;49.486;9.640;2023-02-18T02:10:12;99401.81;;;9.72;100.00
57779;BME280;43608;49.486;9.640;2023-02-18T02:11:01;99408.88;;;9.72;100.00
57779;BME280;43608;49.486;9.640;2023-02-18T02:12:50;99395.63;;;9.72;100.00
57779;BME280;43608;49.486;9.640;2023-02-18T02:14:46;99394.72;;;9.71;100.00
57779;BME280;43608;49.486;9.640;2023-02-18T02:16:42;99387.63;;;9.69;100.00
57779;BME280;43608;49.486;9.640;2023-02-18T02:20:36;99392.06;;;9.70;100.00
57779;BME280;43608;49.486;9.640;2023-02-18T02:31:07;99380.53;;;9.63;100.00
57779;BME280;43608;49.486;9.640;2023-02-18T02:35:20;99398.22;;;9.69;100.00
57779;BME280;43608;49.486;9.640;2023-02-18T02:36:13;99403.53;;;9.69;100.00
57779;BME280;43608;49.486;9.640;2023-02-18T02:38:05;99392.91;;;9.66;100.00
57779;BME280;43608;49.486;9.640;2023-02-18T02:38:59;99388.53;;;9.66;100.00
57779;BME280;43608;49.486;9.640;2023-02-18T02:41:32;99386.75;;;9.68;100.00
57779;BME280;43608;49.486;9.640;2023-02-18T02:43:55;99376.16;;;9.67;100.00
57779;BME280;43608;49.486;9.640;2023-02-18T02:44:33;99377.03;;;9.66;100.00
57779;BME280;43608;49.486;9.640;2023-02-18T02:45:08;99380.59;;;9.68;100.00
57779;BME280;43608;49.486;9.640;2023-02-18T02:45:47;99382.31;;;9.66;100.00
57779;BME280;43608;49.486;9.640;2023-02-18T02:46:26;99368.22;;;9.67;100.00
57779;BME280;43608;49.486;9.640;2023-02-18T02:47:01;99366.41;;;9.63;100.00
57779;BME280;43608;49.486;9.640;2023-02-18T02:48:48;99375.28;;;9.66;100.00
57779;BME280;43608;49.486;9.640;2023-02-18T02:49:36;99366.38;;;9.59;100.00
57779;BME280;43608;49.486;9.640;2023-02-18T02:50:13;99374.41;;;9.67;100.00
57779;BME280;43608;49.486;9.640;2023-02-18T02:51:09;99368.16;;;9.59;100.00
57779;BME280;43608;49.486;9.640;2023-02-18T02:51:46;99375.28;;;9.66;100.00
57779;BME280;43608;49.486;9.640;2023-02-18T02:52:25;99374.38;;;9.64;100.00
57779;BME280;43608;49.486;9.640;2023-02-18T02:53:01;99373.53;;;9.67;100.00
57779;BME280;43608;49.486;9.640;2023-02-18T02:53:36;99350.44;;;9.53;100.00
57779;BME280;43608;49.486;9.640;2023-02-18T02:54:42;99371.72;;;9.64;100.00
57779;BME280;43608;49.486;9.640;2023-02-18T02:55:13;99364.66;;;9.65;100.00
57779;BME280;43608;49.486;9.640;2023-02-18T02:55:43;99345.25;;;9.61;100.00
57779;BME280;43608;49.486;9.640;2023-02-18T02:56:22;99356.69;;;9.62;100.00
57779;BME280;43608;49.486;9.640;2023-02-18T02:57:58;99354.91;;;9.61;100.00
57779;BME280;43608;49.486;9.640;2023-02-18T02:58:29;99373.53;;;9.67;100.00
57779;BME280;43608;49.486;9.640;2023-02-18T02:59:02;99366.44;;;9.67;100.00
57779;BME280;43608;49.486;9.640;2023-02-18T02:59:35;99353.22;;;9.67;100.00
57779;BME280;43608;49.486;9.640;2023-02-18T03:00:09;99364.72;;;9.66;100.00
57779;BME280;43608;49.486;9.640;2023-02-18T03:03:47;99362.91;;;9.65;100.00
57779;BME280;43608;49.486;9.640;2023-02-18T03:05:12;99366.44;;;9.66;100.00
57779;BME280;43608;49.486;9.640;2023-02-18T03:09:15;99358.47;;;9.63;100.00
57779;BME280;43608;49.486;9.640;2023-02-18T03:11:41;99354.91;;;9.61;100.00
57779;BME280;43608;49.486;9.640;2023-02-18T03:12:24;99356.72;;;9.65;100.00
57779;BME280;43608;49.486;9.640;2023-02-18T03:17:11;99367.31;;;9.65;100.00
57779;BME280;43608;49.486;9.640;2023-02-18T03:17:57;99346.13;;;9.63;100.00
57779;BME280;43608;49.486;9.640;2023-02-18T03:19:15;99364.63;;;9.60;100.00
57779;BME280;43608;49.486;9.640;2023-02-18T03:19:56;99368.16;;;9.59;100.00
57779;BME280;43608;49.486;9.640;2023-02-18T03:20:42;99354.84;;;9.54;100.00
57779;BME280;43608;49.486;9.640;2023-02-18T03:21:57;99345.09;;;9.49;100.00
57779;BME280;43608;49.486;9.640;2023-02-18T03:22:32;99343.38;;;9.52;100.00
57779;BME280;43608;49.486;9.640;2023-02-18T03:23:10;99341.59;;;9.53;100.00
57779;BME280;43608;49.486;9.640;2023-02-18T03:24:19;99358.47;;;9.63;100.00
57779;BME280;43608;49.486;9.640;2023-02-18T03:24:55;99351.34;;;9.55;100.00
57779;BME280;43608;49.486;9.640;2023-02-18T03:25:27;99343.41;;;9.57;100.00
57779;BME280;43608;49.486;9.640;2023-02-18T03:25:58;99364.63;;;9.58;100.00
57779;BME280;43608;49.486;9.640;2023-02-18T03:26:31;99360.19;;;9.56;100.00
57779;BME280;43608;49.486;9.640;2023-02-18T03:27:55;99368.22;;;9.64;100.00
57779;BME280;43608;49.486;9.640;2023-02-18T03:28:28;99369.06;;;9.64;100.00
57779;BME280;43608;49.486;9.640;2023-02-18T03:29:03;99372.59;;;9.65;100.00
57779;BME280;43608;49.486;9.640;2023-02-18T03:29:37;99354.06;;;9.62;100.00
57779;BME280;43608;49.486;9.640;2023-02-18T03:30:13;99358.50;;;9.64;100.00
57779;BME280;43608;49.486;9.640;2023-02-18T03:30:51;99357.56;;;9.61;100.00
57779;BME280;43608;49.486;9.640;2023-02-18T03:31:25;99357.63;;;9.64;100.00
57779;BME280;43608;49.486;9.640;2023-02-18T03:31:59;99356.63;;;9.57;100.00
57779;BME280;43608;49.486;9.640;2023-02-18T03:32:33;99346.06;;;9.57;100.00
57779;BME280;43608;49.486;9.640;2023-02-18T03:33:07;99337.16;;;9.49;100.00
57779;BME280;43608;49.486;9.640;2023-02-18T03:33:44;99354.06;;;9.63;100.00
57779;BME280;43608;49.486;9.640;2023-02-18T03:34:19;99326.56;;;9.46;100.00
57779;BME280;43608;49.486;9.640;2023-02-18T03:34:59;99348.69;;;9.55;100.00
57779;BME280;43608;49.486;9.640;2023-02-18T03:35:31;99332.72;;;9.48;100.00
57779;BME280;43608;49.486;9.640;2023-02-18T03:36:02;99292.00;;;9.29;100.00
57779;BME280;43608;49.486;9.640;2023-02-18T03:36:34;99325.69;;;9.48;100.00
57779;BME280;43608;49.486;9.640;2023-02-18T03:37:06;99321.22;;;9.44;100.00
57779;BME280;43608;49.486;9.640;2023-02-18T03:37:42;99343.41;;;9.57;100.00
57779;BME280;43608;49.486;9.640;2023-02-18T03:38:19;99351.41;;;9.62;100.00
57779;BME280;43608;49.486;9.640;2023-02-18T03:39:14;99348.66;;;9.51;100.00
57779;BME280;43608;49.486;9.640;2023-02-18T03:39:48;99354.94;;;9.62;100.00
57779;BME280;43608;49.486;9.640;2023-02-18T03:40:20;99346.09;;;9.58;100.00
57779;BME280;43608;49.486;9.640;2023-02-18T03:40:50;99354.06;;;9.62;100.00
57779;BME280;43608;49.486;9.640;2023-02-18T03:41:21;99349.63;;;9.61;100.00
57779;BME280;43608;49.486;9.640;2023-02-18T03:41:52;99339.88;;;9.55;100.00